Aviation Digital Data Service (ADDS)

Output produced by METARs form (0209 UTC 26 April 2017)
found at http://www.aviationweather.gov/adds/metars/
 
UTAA 260200Z 29015KT 9999 -SHRA FEW043CB BKN043 OVC100 15/10 Q1025 R88/290055 NOSIG
TAF UTAA 252230Z 2600/2624 33012G22KT 4000 -RA BKN020 SCT030CB 530009 
     TEMPO 2600/2609 30018G28KT 2000 SHRA OVC007 
     PROB40 
     TEMPO 2600/2606 TS 
     TEMPO 2609/2615 VRB30KT 2000 TSRA
       
UTAK 260200Z 01016KT CAVOK 11/06 Q1029 R34L/CLRD70 NOSIG
TAF UTAK 252230Z 2600/2624 33018G28KT 6000 SCT026 BKN100 530009 
     TEMPO 2600/2604 30014G24KT 2500 BR BKN004 
     BECMG 2604/2606 36016G26KT 9999 NSW SCT026 
     TEMPO 2606/2613 6000 BKN010
       
UTAM 260200Z 29010G20KT CAVOK 16/06 Q1020 NOSIG
TAF UTAM 252230Z 2600/2624 32018G28KT 2000 BLDU SCT050CB BKN050 530009 
     TEMPO 2600/2606 30022G32KT 0800 DS VV005 570003 
     TEMPO 2606/2615 31026G36KT 0400 DS VV003 570005 
     PROB40 
     TEMPO 2606/2615 -TSSHRA 
     BECMG 2615/2617 33014G24KT 5000 BKN030 
     TEMPO 2615/2624 3000 -TSSHRA
       
UTAT 260200Z 34016KT CAVOK 15/06 Q1022 R26/CLRD70 NOSIG
TAF UTAT 252241Z 2600/2624 31014KT 5000 SCT030CB OVC100 650500 530005 570500 
     TEMPO 2600/2606 29016KT 
     TEMPO 2606/2612 3000 -SHRA OVC020 
     PROB40 
     TEMPO 2605/2608 VRB30KT TS
       
UTAV 260200Z 30013KT CAVOK 17/10 Q1015 NOSIG
TAF UTAV 252230Z 2600/2624 36014KT 5000 SCT050CB SCT050 530005 
     TEMPO 2600/2612 30030G40KT 0500 DS VV004 570006
       
UTDD 260200Z 36001MPS 9999 NSC 17/12 Q1018 R09/D NOSIG RMK QFE695/0926
TAF UTDD 260000Z 2601/2613 VRB02MPS 6000 FEW066 SCT150 
     TEMPO 2607/2613 27007MPS 3000 HZ
       
UTDK 260200Z 02006MPS 9999 SCT084 18/12 Q1017 R01/09//70 RMK QFE705/0940
TAF UTDK 260000Z 2601/2610 03005MPS 6000 FEW066 SCT150 
     TEMPO 2601/2610 VRB02MPS
       
UTDL 260200Z 30001MPS 9999 FEW230 18/07 Q1015 88CLRD70 NOSIG RMK QFE723/0965
TAF UTDL 260000Z 2601/2610 23006MPS 9999 NSC 
     TEMPO 2601/2604 VRB03MPS
       
UTDT 260200Z 04003MPS 9999 FEW053 BKN093 18/13 Q1015 35CLRD70 RMK QFE722/0963
TAF UTDT 260000Z 2601/2610 VRB02MPS 6000 FEW066 SCT150 
     TEMPO 2601/2610 19005MPS 3000 HZ
       
UTFF 260130Z 15006KT 9999 NSC 17/09 Q1014 R99/CLRD70
UTFF 260000Z 2601/2610 34010KT 9999 NSC 
     TEMPO 2601/2610 VRB02KT 6000 FEW050CB
       
UTFN 260130Z 33006KT 9999 NSC 17/07 Q1014 R28/CLRD70 NOSIG
TAF UTFN 252300Z 2600/2624 15008KT 9999 NSC 
     TEMPO 2600/2607 09002KT 7000 FEW050CB
       
UTNN 260130Z 32016KT CAVOK 13/04 Q1022 R33/CLRD60 NOSIG
TAF UTNN 252300Z 2600/2624 32014KT 9999 SCT050CB BKN100 
     TEMPO 2602/2608 35023G33KT 5000 -TSRA BR SCT020CB BKN100
       
UTNU 260130Z 31008KT CAVOK 14/06 Q1019 R31/CLRD70 NOSIG
TAF UTNU 251703Z 2518/2618 33012G22KT 6000 SCT040CB BKN100 
     TEMPO 2518/2524 30018G28KT 3000 DU BKN020CB OVC100 
     PROB30 
     TEMPO 2518/2524 VRB30KT -TSRA
       
UTSA 260130Z 09004KT 9999 NSC 16/09 Q1014 R07/CLRD70 NOSIG
TAF UTSA 251701Z 2518/2618 VRB03KT 7000 NSC 
     TEMPO 2518/2604 36012KT SCT050 BKN100
       
UTSB 260130Z 09004KT CAVOK 15/11 Q1013 R01/CLRD70 NOSIG
TAF UTSB 252301Z 2600/2624 VRB03KT 7000 NSC 
     TEMPO 2600/2606 36012KT SCT050 BKN100 
     TEMPO 2606/2615 33015G25KT 4000 -DS SCT033 BKN100
       
UTSK 260130Z 07006KT CAVOK 16/08 Q1014 R16/CLRD70
TAF UTSK 252351Z 2601/2610 07010KT CAVOK 
     TEMPO 2601/2610 30014G24KT 5000 DU SCT066CB BKN100 
     PROB40 
     TEMPO 2601/2610 TS
       
UTSS 260130Z VRB02KT 7000 NSC 14/11 Q1016 R09/70D NOSIG
TAF UTSS 252300Z 2600/2624 12010G20KT 9999 NSC 
     TEMPO 2600/2612 30016G26KT 5000 DU SCT066CB BKN100 
     PROB40 
     TEMPO 2600/2612 TS
       
UTST 260130Z 24004KT CAVOK 14/09 Q1015 R88/CLRD70 NOSIG
TAF UTST 252300Z 2600/2624 23010G20KT 6000 NSC 
     TEMPO 2600/2612 25023G33KT 0800 +DS SCT060CB SCT100
       
UTTT 260130Z 08004KT CAVOK 18/09 Q1014 R08R/CLRD70 NOSIG
TAF UTTT 252300Z 2600/2624 08010KT 7000 NSC 
     TEMPO 2615/2624 23015G25KT 3000 -DS SCT060CB BKN100
       
UTSB 260130Z 09004KT CAVOK 15/11 Q1013 R01/CLRD70 NOSIG
TAF UTSB 252301Z 2600/2624 VRB03KT 7000 NSC 
     TEMPO 2600/2606 36012KT SCT050 BKN100 
     TEMPO 2606/2615 33015G25KT 4000 -DS SCT033 BKN100
       
UTSK 260130Z 07006KT CAVOK 16/08 Q1014 R16/CLRD70
TAF UTSK 252351Z 2601/2610 07010KT CAVOK 
     TEMPO 2601/2610 30014G24KT 5000 DU SCT066CB BKN100 
     PROB40 
     TEMPO 2601/2610 TS
       
UTSS 260130Z VRB02KT 7000 NSC 14/11 Q1016 R09/70D NOSIG
TAF UTSS 252300Z 2600/2624 12010G20KT 9999 NSC 
     TEMPO 2600/2612 30016G26KT 5000 DU SCT066CB BKN100 
     PROB40 
     TEMPO 2600/2612 TS
       
UTST 260130Z 24004KT CAVOK 14/09 Q1015 R88/CLRD70 NOSIG
TAF UTST 252300Z 2600/2624 23010G20KT 6000 NSC 
     TEMPO 2600/2612 25023G33KT 0800 +DS SCT060CB SCT100
       
UTNU 260130Z 31008KT CAVOK 14/06 Q1019 R31/CLRD70 NOSIG
TAF UTNU 251703Z 2518/2618 33012G22KT 6000 SCT040CB BKN100 
     TEMPO 2518/2524 30018G28KT 3000 DU BKN020CB OVC100 
     PROB30 
     TEMPO 2518/2524 VRB30KT -TSRA
       
UTTT 260130Z 08004KT CAVOK 18/09 Q1014 R08R/CLRD70 NOSIG
TAF UTTT 252300Z 2600/2624 08010KT 7000 NSC 
     TEMPO 2615/2624 23015G25KT 3000 -DS SCT060CB BKN100